createdAt,value
2022-09-28T00:00:33.632Z,94.13
2022-09-28T00:02:25.840Z,94.02
2022-09-28T00:04:18.211Z,93.63
2022-09-28T00:06:14.664Z,94.87
2022-09-28T00:08:06.473Z,94.21
2022-09-28T00:09:58.373Z,94.68
2022-09-28T00:11:54.497Z,94.87
2022-09-28T00:13:51.767Z,95.29
2022-09-28T00:15:43.923Z,95.15
2022-09-28T00:17:36.882Z,94.95
2022-09-28T00:19:28.968Z,95.32
2022-09-28T00:21:28.373Z,95.51
2022-09-28T00:23:20.179Z,95.63
2022-09-28T00:25:11.605Z,95.09
2022-09-28T00:27:04.440Z,95.26
2022-09-28T00:29:00.858Z,94.95
2022-09-28T00:30:57.025Z,95.71
2022-09-28T00:32:49.041Z,95.87
2022-09-28T00:34:46.368Z,95.44
2022-09-28T00:36:38.773Z,95.46
2022-09-28T00:38:30.933Z,95.57
2022-09-28T00:40:23.410Z,95.27
2022-09-28T00:42:21.639Z,95.44
2022-09-28T00:44:34.562Z,95.70
2022-09-28T00:46:36.433Z,95.19
2022-09-28T00:48:33.042Z,95.73
2022-09-28T00:50:31.976Z,95.26
2022-09-28T00:52:31.887Z,95.21
2022-09-28T00:54:23.988Z,95.68
2022-09-28T00:56:19.998Z,95.29
2022-09-28T00:58:16.522Z,95.44
2022-09-28T01:00:09.051Z,95.56
2022-09-28T01:02:02.497Z,96.22
2022-09-28T01:03:55.451Z,95.71
2022-09-28T01:05:49.057Z,95.09
2022-09-28T01:07:44.231Z,94.93
2022-09-28T01:09:39.870Z,96.28
2022-09-28T01:11:36.444Z,95.40
2022-09-28T01:13:32.164Z,96.04
2022-09-28T01:15:27.668Z,96.81
2022-09-28T01:17:27.352Z,96.57
2022-09-28T01:19:51.824Z,96.01
2022-09-28T01:21:54.893Z,96.35
2022-09-28T01:23:59.114Z,95.90
2022-09-28T01:25:56.263Z,96.28
2022-09-28T01:28:10.321Z,96.58
2022-09-28T01:30:08.551Z,96.32
2022-09-28T01:32:14.980Z,96.21
2022-09-28T01:34:17.514Z,96.64
2022-09-28T01:36:28.386Z,97.50
2022-09-28T01:38:25.303Z,96.86
2022-09-28T01:40:19.084Z,97.12
2022-09-28T01:42:19.397Z,96.95
2022-09-28T01:44:16.901Z,96.82
2022-09-28T01:46:21.032Z,97.78
2022-09-28T01:48:20.407Z,97.42
2022-09-28T01:50:16.923Z,96.79
2022-09-28T01:52:25.331Z,97.28
2022-09-28T01:54:25.788Z,96.98
2022-09-28T01:56:35.051Z,97.67
2022-09-28T01:58:38.927Z,97.98
2022-09-28T02:00:33.126Z,97.32
2022-09-28T02:02:33.080Z,97.70
2022-09-28T02:04:33.170Z,97.56
2022-09-28T02:06:34.565Z,97.90
2022-09-28T02:08:34.982Z,98.13
2022-09-28T02:10:36.163Z,97.63
2022-09-28T02:12:44.452Z,97.31
2022-09-28T02:14:40.605Z,97.50
2022-09-28T02:16:40.962Z,97.51
2022-09-28T02:18:33.447Z,98.17
2022-09-28T02:20:25.550Z,98.50
2022-09-28T02:22:23.985Z,97.26
2022-09-28T02:24:39.227Z,97.78
2022-09-28T02:26:38.410Z,97.88
2022-09-28T02:28:31.233Z,97.43
2022-09-28T02:30:23.693Z,97.34
2022-09-28T02:32:17.205Z,97.53
2022-09-28T02:34:09.820Z,96.76
2022-09-28T02:36:01.827Z,95.49
2022-09-28T02:37:55.554Z,95.07
2022-09-28T02:39:48.312Z,94.55
2022-09-28T02:42:04.488Z,94.37
2022-09-28T02:44:04.886Z,94.23
2022-09-28T02:46:02.640Z,93.54
2022-09-28T02:48:31.357Z,91.98
2022-09-28T02:50:44.480Z,91.74
2022-09-28T02:52:55.118Z,91.09
2022-09-28T02:55:19.499Z,90.83
2022-09-28T02:57:24.122Z,91.62
2022-09-28T02:59:34.132Z,90.80
2022-09-28T03:01:52.128Z,92.17
2022-09-28T03:03:51.635Z,92.02
2022-09-28T03:06:06.100Z,91.61
2022-09-28T03:08:12.010Z,92.29
2022-09-28T03:10:20.482Z,91.74
2022-09-28T03:12:17.613Z,92.16
2022-09-28T03:14:11.610Z,92.07
2022-09-28T03:16:20.347Z,92.12
2022-09-28T03:18:14.846Z,91.48
2022-09-28T03:20:07.323Z,91.59
2022-09-28T03:21:59.741Z,90.76
2022-09-28T03:23:51.671Z,90.65
2022-09-28T03:25:43.258Z,89.55
2022-09-28T03:27:35.246Z,88.37
2022-09-28T03:29:27.404Z,86.71
2022-09-28T03:31:24.653Z,85.08
2022-09-28T03:33:16.977Z,84.09
2022-09-28T03:35:10.294Z,83.42
2022-09-28T03:37:02.106Z,81.84
2022-09-28T03:38:56.713Z,80.98
2022-09-28T03:40:55.056Z,81.49
2022-09-28T03:42:47.652Z,81.67
2022-09-28T03:44:39.388Z,81.65
2022-09-28T03:46:31.481Z,82.50
2022-09-28T03:48:32.984Z,82.32
2022-09-28T03:50:25.348Z,82.32
2022-09-28T03:52:17.239Z,82.21
2022-09-28T03:54:08.926Z,82.99
2022-09-28T03:56:05.926Z,83.85
2022-09-28T03:57:58.219Z,83.55
2022-09-28T03:59:50.048Z,84.27
2022-09-28T04:01:42.143Z,83.97
2022-09-28T04:03:33.778Z,82.94
2022-09-28T04:05:25.423Z,81.52
2022-09-28T04:07:17.219Z,79.89
2022-09-28T04:09:09.539Z,78.87
2022-09-28T04:11:02.816Z,77.48
2022-09-28T04:12:58.472Z,76.67
2022-09-28T04:14:51.072Z,77.08
2022-09-28T04:16:43.247Z,77.51
2022-09-28T04:18:39.143Z,77.66
2022-09-28T04:20:34.068Z,77.68
2022-09-28T04:22:32.835Z,75.00
2022-09-28T04:24:24.747Z,73.20
2022-09-28T04:26:20.195Z,69.37
2022-09-28T04:28:31.271Z,65.46
2022-09-28T04:30:23.706Z,62.55
2022-09-28T04:32:15.530Z,60.73
2022-09-28T04:34:08.053Z,58.84
2022-09-28T04:36:01.111Z,56.29
2022-09-28T04:37:53.196Z,55.61
2022-09-28T04:39:48.243Z,54.65
2022-09-28T04:41:43.831Z,53.72
2022-09-28T04:43:35.898Z,52.43
2022-09-28T04:45:27.863Z,52.01
2022-09-28T04:47:26.098Z,50.77
2022-09-28T04:49:37.621Z,50.04
2022-09-28T04:51:14.136Z,49.19
2022-09-28T04:52:47.827Z,46.95
2022-09-28T04:54:21.906Z,46.47
2022-09-28T04:56:28.370Z,46.44
2022-09-28T04:58:04.152Z,45.42
2022-09-28T04:59:38.245Z,44.83
2022-09-28T05:01:17.124Z,45.46
2022-09-28T05:03:06.484Z,46.06
2022-09-28T05:04:59.841Z,46.97
2022-09-28T05:06:55.018Z,47.80
2022-09-28T05:08:30.911Z,48.46
2022-09-28T05:10:04.606Z,48.48
2022-09-28T05:11:39.232Z,49.14
2022-09-28T05:13:19.191Z,50.42
2022-09-28T05:14:52.972Z,50.69
2022-09-28T05:16:27.682Z,51.51
2022-09-28T05:18:19.190Z,53.02
2022-09-28T05:19:58.739Z,52.31
2022-09-28T05:21:32.953Z,52.24
2022-09-28T05:23:06.486Z,52.65
2022-09-28T05:24:39.926Z,53.11
2022-09-28T05:26:13.445Z,53.44
2022-09-28T05:27:46.924Z,53.91
2022-09-28T05:29:36.174Z,53.83
2022-09-28T05:31:28.585Z,54.59
2022-09-28T05:33:24.632Z,54.85
2022-09-28T05:35:11.398Z,55.14
2022-09-28T05:36:48.760Z,55.50
2022-09-28T05:38:24.353Z,55.86
2022-09-28T05:39:57.860Z,55.22
2022-09-28T05:41:32.476Z,54.59
2022-09-28T05:43:07.124Z,55.20
2022-09-28T05:44:40.355Z,55.66
2022-09-28T05:46:13.913Z,56.11
2022-09-28T05:47:48.260Z,55.20
2022-09-28T05:49:25.452Z,55.69
2022-09-28T05:51:02.173Z,55.88
2022-09-28T05:52:39.188Z,56.53
2022-09-28T05:54:13.881Z,55.67
2022-09-28T05:55:51.283Z,54.90
2022-09-28T05:57:24.413Z,55.00
2022-09-28T05:58:59.113Z,55.23
2022-09-28T06:00:36.614Z,53.87
2022-09-28T06:02:11.381Z,53.97
2022-09-28T06:03:45.196Z,53.20
2022-09-28T06:05:18.609Z,52.59
2022-09-28T06:06:52.159Z,52.76
2022-09-28T06:08:25.832Z,52.53
2022-09-28T06:10:12.042Z,52.67
2022-09-28T06:11:49.167Z,52.01
2022-09-28T06:13:35.873Z,50.51
2022-09-28T06:15:09.838Z,50.83
2022-09-28T06:16:44.044Z,50.97
2022-09-28T06:18:18.947Z,50.41
2022-09-28T06:20:12.395Z,50.45
2022-09-28T06:22:14.910Z,50.43
